createdAt,value
2023-02-09T00:00:20.181Z,1.40
2023-02-09T00:02:47.208Z,1.30
2023-02-09T00:05:14.016Z,1.30
2023-02-09T00:07:41.145Z,1.30
2023-02-09T00:10:08.589Z,1.30
2023-02-09T00:12:55.656Z,1.20
2023-02-09T00:15:24.088Z,1.20
2023-02-09T00:17:50.897Z,1.20
2023-02-09T00:20:18.265Z,1.20
2023-02-09T00:22:45.069Z,1.20
2023-02-09T00:25:12.180Z,1.10
2023-02-09T00:27:39.859Z,1.10
2023-02-09T00:30:07.754Z,1.20
2023-02-09T00:32:38.584Z,1.10
2023-02-09T00:35:07.824Z,1.10
2023-02-09T00:37:36.534Z,1.10
2023-02-09T00:40:04.008Z,1.10
2023-02-09T00:42:31.228Z,1.10
2023-02-09T00:44:58.145Z,1.10
2023-02-09T00:47:25.122Z,1.10
2023-02-09T00:49:53.620Z,1.00
2023-02-09T00:52:20.400Z,1.00
2023-02-09T00:54:47.388Z,1.00
2023-02-09T00:57:14.223Z,1.00
2023-02-09T00:59:42.420Z,1.00
2023-02-09T01:02:09.421Z,1.00
2023-02-09T01:04:37.882Z,1.00
2023-02-09T01:07:06.226Z,0.90
2023-02-09T01:09:34.386Z,0.90
2023-02-09T01:12:03.498Z,0.90
2023-02-09T01:14:30.638Z,0.90
2023-02-09T01:16:57.500Z,0.90
2023-02-09T01:19:24.600Z,0.90
2023-02-09T01:21:51.542Z,0.90
2023-02-09T01:24:20.046Z,0.90
2023-02-09T01:26:46.895Z,0.80
2023-02-09T01:29:15.973Z,0.80
2023-02-09T01:31:43.735Z,0.70
2023-02-09T01:34:13.518Z,0.70
2023-02-09T01:36:40.416Z,0.70
2023-02-09T01:39:07.906Z,0.70
2023-02-09T01:42:06.919Z,0.70
2023-02-09T01:48:05.993Z,0.60
2023-02-09T01:50:35.981Z,0.60
2023-02-09T01:53:03.888Z,0.60
2023-02-09T01:55:34.808Z,0.60
2023-02-09T01:58:10.270Z,0.60
2023-02-09T02:00:37.178Z,0.60
2023-02-09T02:03:08.770Z,0.60
2023-02-09T02:05:39.013Z,0.70
2023-02-09T02:08:10.995Z,0.70
2023-02-09T02:10:37.986Z,0.60
2023-02-09T02:13:06.437Z,0.70
2023-02-09T02:15:41.867Z,0.70
2023-02-09T02:18:23.316Z,0.70
2023-02-09T02:21:34.983Z,0.70
2023-02-09T02:24:31.971Z,0.70
2023-02-09T02:27:00.822Z,0.60
2023-02-09T02:29:50.906Z,0.60
2023-02-09T02:32:46.214Z,0.60
2023-02-09T02:35:17.715Z,0.60
2023-02-09T02:37:56.097Z,0.60
2023-02-09T02:40:33.063Z,0.60
2023-02-09T02:43:06.270Z,0.60
2023-02-09T02:45:40.165Z,0.60
2023-02-09T02:48:22.851Z,0.50
2023-02-09T02:50:54.383Z,0.60
2023-02-09T02:54:25.713Z,0.50
2023-02-09T02:57:04.051Z,0.50
2023-02-09T02:59:34.492Z,0.50
2023-02-09T03:02:06.480Z,0.50
2023-02-09T03:04:38.717Z,0.40
2023-02-09T03:07:17.454Z,0.40
2023-02-09T03:09:50.438Z,0.40
2023-02-09T03:12:25.442Z,0.40
2023-02-09T03:15:14.168Z,0.40
2023-02-09T03:17:48.368Z,0.40
2023-02-09T03:20:25.641Z,0.40
2023-02-09T03:22:57.491Z,0.40
2023-02-09T03:25:29.772Z,0.40
2023-02-09T03:28:02.960Z,0.40
2023-02-09T03:30:32.430Z,0.40
2023-02-09T03:32:59.692Z,0.30
2023-02-09T03:35:35.270Z,0.30
2023-02-09T03:38:02.366Z,0.30
2023-02-09T03:40:29.238Z,0.30
2023-02-09T03:42:56.339Z,0.30
2023-02-09T03:45:23.363Z,0.30
2023-02-09T03:47:50.520Z,0.30
2023-02-09T03:50:17.910Z,0.30
2023-02-09T03:52:46.135Z,0.30
2023-02-09T03:55:13.066Z,0.30
2023-02-09T03:57:39.913Z,0.40
2023-02-09T04:00:08.376Z,0.40
2023-02-09T04:02:35.278Z,0.30
2023-02-09T04:05:03.261Z,0.30
2023-02-09T04:07:31.640Z,0.30
2023-02-09T04:09:59.798Z,0.30
2023-02-09T04:12:26.704Z,0.40
2023-02-09T04:14:53.522Z,0.30
2023-02-09T04:17:20.331Z,0.30
2023-02-09T04:19:47.247Z,0.30
2023-02-09T04:22:14.069Z,0.30
2023-02-09T04:24:40.877Z,0.30
2023-02-09T04:27:09.191Z,0.30
2023-02-09T04:29:36.104Z,0.30
2023-02-09T04:32:03.403Z,0.30
2023-02-09T04:34:30.361Z,0.30
2023-02-09T04:36:57.250Z,0.40
2023-02-09T04:39:24.344Z,0.30
2023-02-09T04:41:51.177Z,0.20
2023-02-09T04:44:19.644Z,0.30
2023-02-09T04:46:46.456Z,0.20
2023-02-09T04:49:13.389Z,0.30
2023-02-09T04:51:40.429Z,0.20
2023-02-09T04:54:08.964Z,0.20
2023-02-09T04:56:37.272Z,0.20
2023-02-09T04:59:24.135Z,0.20
2023-02-09T05:01:52.745Z,0.20
2023-02-09T05:04:19.825Z,0.20
2023-02-09T05:06:47.060Z,0.20
2023-02-09T05:09:14.032Z,0.20
2023-02-09T05:11:40.833Z,0.10
2023-02-09T05:14:07.837Z,0.10
2023-02-09T05:16:34.780Z,0.10
2023-02-09T05:19:03.045Z,0.10
2023-02-09T05:21:29.974Z,0.10
2023-02-09T05:23:56.739Z,0.20
2023-02-09T05:26:23.630Z,0.10
2023-02-09T05:28:50.469Z,0.10
2023-02-09T05:31:18.347Z,0.10
2023-02-09T05:33:45.311Z,0.10
2023-02-09T05:36:14.437Z,0.10
2023-02-09T05:38:41.398Z,0.10
2023-02-09T05:41:09.932Z,0.00
2023-02-09T05:43:38.320Z,0.00
2023-02-09T05:46:08.160Z,0.00
2023-02-09T05:48:35.384Z,0.00
2023-02-09T05:51:02.537Z,0.00
2023-02-09T05:53:31.309Z,0.00
2023-02-09T05:55:58.171Z,-3276.70
2023-02-09T05:58:24.937Z,-3276.70
2023-02-09T06:00:51.799Z,-3276.70
2023-02-09T06:03:18.731Z,-3276.70
2023-02-09T06:05:45.954Z,-3276.70
2023-02-09T06:08:12.877Z,-3276.60
2023-02-09T06:10:41.083Z,-3276.60
2023-02-09T06:13:08.051Z,-3276.60
2023-02-09T06:15:34.925Z,-3276.60
2023-02-09T06:18:02.213Z,-3276.50
2023-02-09T06:20:29.041Z,-3276.50
2023-02-09T06:22:55.886Z,-3276.50
2023-02-09T06:25:22.769Z,-3276.40
2023-02-09T06:27:51.029Z,-3276.50
2023-02-09T06:30:17.899Z,-3276.40
2023-02-09T06:32:44.813Z,-3276.50
2023-02-09T06:35:11.812Z,-3276.40
2023-02-09T06:37:38.790Z,-3276.40
2023-02-09T06:40:06.466Z,-3276.40
2023-02-09T06:42:48.868Z,-3276.40
2023-02-09T06:45:17.866Z,-3276.40
2023-02-09T06:47:46.059Z,-3276.40
2023-02-09T06:50:15.265Z,-3276.40
2023-02-09T06:52:42.547Z,-3276.40
2023-02-09T06:55:09.650Z,-3276.40
2023-02-09T06:57:37.714Z,-3276.40
2023-02-09T07:00:07.552Z,-3276.40
2023-02-09T07:02:36.172Z,-3276.40
2023-02-09T07:05:04.738Z,-3276.40
2023-02-09T07:07:32.420Z,-3276.40
2023-02-09T07:10:00.040Z,-3276.40
2023-02-09T07:12:27.068Z,-3276.40
2023-02-09T07:14:54.202Z,-3276.40
2023-02-09T07:17:21.131Z,-3276.40
2023-02-09T07:19:49.970Z,-3276.40
2023-02-09T07:22:16.858Z,-3276.40
2023-02-09T07:24:43.996Z,-3276.40
2023-02-09T07:27:10.844Z,-3276.40
2023-02-09T07:29:37.718Z,-3276.50
2023-02-09T07:32:06.850Z,-3276.50
2023-02-09T07:34:34.073Z,-3276.50
2023-02-09T07:37:03.123Z,-3276.50
2023-02-09T07:39:34.028Z,-3276.50
2023-02-09T07:42:01.712Z,-3276.50
2023-02-09T07:44:28.663Z,-3276.50
2023-02-09T07:46:55.984Z,-3276.60
2023-02-09T07:49:22.873Z,-3276.60
2023-02-09T07:51:50.416Z,-3276.70
2023-02-09T07:54:21.006Z,-3276.70
2023-02-09T07:56:47.868Z,0.00
2023-02-09T07:59:15.010Z,0.00
2023-02-09T08:01:42.076Z,0.00
2023-02-09T08:04:09.170Z,0.00
2023-02-09T08:06:42.758Z,0.00
2023-02-09T08:09:11.434Z,0.00
2023-02-09T08:11:45.620Z,0.10
2023-02-09T08:14:17.521Z,0.10
2023-02-09T08:16:45.091Z,0.20
2023-02-09T08:19:16.745Z,0.30
2023-02-09T08:21:46.490Z,0.30
2023-02-09T08:24:16.455Z,0.40
2023-02-09T08:26:45.312Z,0.40
2023-02-09T08:29:12.493Z,0.50
2023-02-09T08:31:40.467Z,0.50
2023-02-09T08:38:07.012Z,0.70
2023-02-09T08:40:37.047Z,0.80
2023-02-09T08:43:05.340Z,0.90
2023-02-09T08:45:32.249Z,0.90
2023-02-09T08:47:59.388Z,1.00
2023-02-09T08:50:26.402Z,1.10
2023-02-09T08:52:53.523Z,1.20
2023-02-09T08:55:20.466Z,1.30
2023-02-09T08:57:47.525Z,1.40
2023-02-09T09:00:29.082Z,1.50
2023-02-09T09:02:55.945Z,1.60
2023-02-09T09:05:25.302Z,1.80
2023-02-09T09:07:52.211Z,1.90
2023-02-09T09:10:19.552Z,2.10
2023-02-09T09:12:46.616Z,2.20
2023-02-09T09:15:14.797Z,2.20
2023-02-09T09:17:41.896Z,2.20
2023-02-09T09:20:10.007Z,2.30
2023-02-09T09:22:37.211Z,2.40
2023-02-09T09:25:06.283Z,2.50
2023-02-09T09:27:35.102Z,2.60
2023-02-09T09:30:02.652Z,2.70
2023-02-09T09:32:31.432Z,2.90
2023-02-09T09:34:59.593Z,3.00
2023-02-09T09:37:26.920Z,3.30
2023-02-09T09:39:53.820Z,3.50
2023-02-09T09:42:34.995Z,3.80
2023-02-09T09:45:04.277Z,4.10
2023-02-09T09:47:40.862Z,4.40
2023-02-09T09:50:18.290Z,4.70
2023-02-09T09:53:00.894Z,5.20
2023-02-09T09:55:29.508Z,5.40
2023-02-09T09:57:59.433Z,5.50
2023-02-09T10:00:29.151Z,5.60
2023-02-09T10:03:01.473Z,5.80
2023-02-09T10:05:38.499Z,6.00
2023-02-09T10:08:11.607Z,6.10
2023-02-09T10:10:46.014Z,6.20
2023-02-09T10:13:19.377Z,6.30
2023-02-09T10:15:48.407Z,6.40
2023-02-09T10:18:18.260Z,6.40
2023-02-09T10:20:50.528Z,6.50
2023-02-09T10:23:20.216Z,6.50
2023-02-09T10:25:58.809Z,6.50
2023-02-09T10:28:28.751Z,6.40
2023-02-09T10:30:58.663Z,6.40
2023-02-09T10:33:37.683Z,6.40
2023-02-09T10:36:06.902Z,6.40
2023-02-09T10:38:41.216Z,6.40
2023-02-09T10:41:11.390Z,6.30
2023-02-09T10:43:38.710Z,6.10
2023-02-09T10:46:13.299Z,6.00
2023-02-09T10:48:43.981Z,5.90
2023-02-09T10:51:15.931Z,6.00
2023-02-09T10:54:00.152Z,5.90
2023-02-09T10:56:33.548Z,5.90
2023-02-09T10:59:02.662Z,5.90
2023-02-09T11:01:33.423Z,5.90
2023-02-09T11:04:05.069Z,6.00
2023-02-09T11:06:41.385Z,6.30
2023-02-09T11:09:15.711Z,6.40
2023-02-09T11:11:43.138Z,6.30
2023-02-09T11:14:13.166Z,6.30
2023-02-09T11:17:08.674Z,6.40
2023-02-09T11:19:54.498Z,6.40
2023-02-09T11:22:35.991Z,6.50
2023-02-09T11:25:14.892Z,6.60
2023-02-09T11:27:56.172Z,6.70
2023-02-09T11:30:39.187Z,6.90
2023-02-09T11:33:19.130Z,7.00
2023-02-09T11:35:53.364Z,7.20
2023-02-09T11:38:31.246Z,7.40
2023-02-09T11:40:59.644Z,7.50
2023-02-09T11:43:31.486Z,7.70
2023-02-09T11:46:02.399Z,7.80
2023-02-09T11:48:32.077Z,7.80
2023-02-09T11:51:07.516Z,7.70
2023-02-09T11:54:40.458Z,7.50
2023-02-09T11:57:16.866Z,7.40
2023-02-09T11:59:47.552Z,7.20
2023-02-09T12:02:31.501Z,7.00
2023-02-09T12:05:00.582Z,7.00
2023-02-09T12:07:39.944Z,7.20
2023-02-09T12:10:16.521Z,7.20
2023-02-09T12:12:47.478Z,7.30
2023-02-09T12:15:17.127Z,7.40
2023-02-09T12:17:50.971Z,7.40
2023-02-09T12:20:28.448Z,7.40
2023-02-09T12:23:02.950Z,7.40
2023-02-09T12:25:48.006Z,7.50
2023-02-09T12:28:39.502Z,7.40
2023-02-09T12:31:12.942Z,7.40
2023-02-09T12:34:00.374Z,7.40
2023-02-09T12:36:30.593Z,7.30
2023-02-09T12:39:24.206Z,7.40
2023-02-09T12:42:26.755Z,7.50
2023-02-09T12:44:56.515Z,7.70
2023-02-09T12:47:41.713Z,7.90
2023-02-09T12:50:31.872Z,8.00
2023-02-09T12:53:43.795Z,7.90
2023-02-09T12:56:38.954Z,7.80
2023-02-09T12:59:18.772Z,7.70
2023-02-09T13:02:11.554Z,7.70
2023-02-09T13:04:41.653Z,7.70
2023-02-09T13:07:21.587Z,7.80
2023-02-09T13:09:49.808Z,7.90
2023-02-09T13:12:29.612Z,7.90
2023-02-09T13:14:56.536Z,7.90
2023-02-09T13:17:40.354Z,7.80
2023-02-09T13:20:38.890Z,7.70
2023-02-09T13:23:20.857Z,7.50
2023-02-09T13:25:48.158Z,7.50
2023-02-09T13:28:19.084Z,7.40
2023-02-09T13:30:47.336Z,7.40
2023-02-09T13:33:30.595Z,7.30
2023-02-09T13:36:24.670Z,7.30
2023-02-09T13:38:53.468Z,7.30
2023-02-09T13:41:37.062Z,7.30
2023-02-09T13:44:20.352Z,7.20
2023-02-09T13:46:53.026Z,7.10
2023-02-09T13:49:24.019Z,7.10
2023-02-09T13:52:11.348Z,7.00
2023-02-09T13:54:38.611Z,7.00
2023-02-09T13:57:09.442Z,6.90
2023-02-09T13:59:41.686Z,6.80
2023-02-09T14:02:21.142Z,6.80
2023-02-09T14:04:52.877Z,6.80
2023-02-09T14:07:21.990Z,6.70
2023-02-09T14:09:51.593Z,6.70
2023-02-09T14:12:43.683Z,6.70
2023-02-09T14:15:32.702Z,6.60
2023-02-09T14:18:00.142Z,6.60
2023-02-09T14:20:27.187Z,6.70
2023-02-09T14:22:58.840Z,6.60
2023-02-09T14:25:34.026Z,6.60
2023-02-09T14:28:01.188Z,6.60
2023-02-09T14:30:32.703Z,6.60
2023-02-09T14:33:03.305Z,6.60
2023-02-09T14:35:33.554Z,6.60
2023-02-09T14:38:03.283Z,6.60
2023-02-09T14:40:32.263Z,6.60
2023-02-09T14:43:02.597Z,6.50
2023-02-09T14:45:46.624Z,6.50
2023-02-09T14:48:18.852Z,6.50
2023-02-09T14:50:46.240Z,6.50
2023-02-09T14:53:15.852Z,6.50
2023-02-09T14:55:44.564Z,6.50
2023-02-09T14:58:18.162Z,6.50
2023-02-09T15:00:46.625Z,6.50
2023-02-09T15:03:13.550Z,6.50
2023-02-09T15:05:40.640Z,6.50
2023-02-09T15:08:11.149Z,6.50
2023-02-09T15:10:42.567Z,6.40
2023-02-09T15:13:12.186Z,6.40
2023-02-09T15:15:40.379Z,6.40
2023-02-09T15:18:21.794Z,6.40
2023-02-09T15:20:52.382Z,6.30
2023-02-09T15:23:28.891Z,6.30
2023-02-09T15:25:56.318Z,6.30
2023-02-09T15:28:32.522Z,6.30
2023-02-09T15:31:03.833Z,6.30
2023-02-09T15:33:38.236Z,6.30
2023-02-09T15:36:14.308Z,6.30
2023-02-09T15:38:46.433Z,6.30
2023-02-09T15:41:33.799Z,6.30
2023-02-09T15:44:32.637Z,6.30
2023-02-09T15:47:18.284Z,6.30
2023-02-09T15:49:46.914Z,6.20
2023-02-09T15:52:15.228Z,6.20
2023-02-09T15:54:43.496Z,6.20
2023-02-09T15:57:12.061Z,6.20
2023-02-09T15:59:39.215Z,6.10
2023-02-09T16:02:11.801Z,6.20
2023-02-09T16:04:39.432Z,6.10
2023-02-09T16:07:10.536Z,6.10
2023-02-09T16:09:37.724Z,6.10
2023-02-09T16:12:09.836Z,6.10
2023-02-09T16:14:37.138Z,6.10
2023-02-09T16:17:04.080Z,6.10
2023-02-09T16:19:31.712Z,6.10
2023-02-09T16:22:03.144Z,6.00
2023-02-09T16:24:38.507Z,6.00
2023-02-09T16:27:15.290Z,6.10
2023-02-09T16:29:42.605Z,6.10
2023-02-09T16:32:15.401Z,6.10
2023-02-09T16:34:42.695Z,6.10
2023-02-09T16:37:11.093Z,6.10
2023-02-09T16:39:39.903Z,6.00
2023-02-09T16:42:11.640Z,6.10
2023-02-09T16:44:38.931Z,6.00
2023-02-09T16:47:11.051Z,6.00
2023-02-09T16:49:40.794Z,5.90
2023-02-09T16:52:15.107Z,5.90
2023-02-09T16:54:46.877Z,5.90
2023-02-09T16:57:23.843Z,5.90
2023-02-09T16:59:51.534Z,5.90
2023-02-09T17:02:40.760Z,5.80
2023-02-09T17:05:18.009Z,5.80
2023-02-09T17:07:54.836Z,5.90
2023-02-09T17:10:26.260Z,5.90
2023-02-09T17:13:05.601Z,5.90
2023-02-09T17:15:39.678Z,5.90
2023-02-09T17:18:19.405Z,5.90
2023-02-09T17:20:49.715Z,5.90
2023-02-09T17:23:23.532Z,5.90
2023-02-09T17:25:55.023Z,5.90
2023-02-09T17:28:27.753Z,5.90
2023-02-09T17:30:58.757Z,5.80
2023-02-09T17:33:28.478Z,5.80
2023-02-09T17:36:24.402Z,5.80
2023-02-09T17:38:45.533Z,5.80
2023-02-09T17:41:17.194Z,5.70
2023-02-09T17:43:44.495Z,5.70
2023-02-09T17:46:12.800Z,5.60
2023-02-09T17:48:42.776Z,5.60
2023-02-09T17:51:18.363Z,5.50
2023-02-09T17:53:45.337Z,5.50
2023-02-09T17:56:12.128Z,5.50
2023-02-09T17:58:44.144Z,5.50
2023-02-09T18:01:26.719Z,5.50
2023-02-09T18:03:54.624Z,5.40
2023-02-09T18:06:26.784Z,5.40
2023-02-09T18:08:54.011Z,5.40
2023-02-09T18:11:37.697Z,5.40
2023-02-09T18:14:09.185Z,5.40
2023-02-09T18:16:36.529Z,5.40
2023-02-09T18:19:03.578Z,5.40
2023-02-09T18:21:33.416Z,5.30
2023-02-09T18:24:03.039Z,5.30
2023-02-09T18:26:30.048Z,5.30
2023-02-09T18:28:57.022Z,5.20
2023-02-09T18:31:25.590Z,5.20
2023-02-09T18:33:53.905Z,5.10
2023-02-09T18:36:21.059Z,5.00
2023-02-09T18:38:49.334Z,5.00
2023-02-09T18:41:16.432Z,5.00
2023-02-09T18:43:44.718Z,4.90
2023-02-09T18:46:14.379Z,4.80
2023-02-09T18:48:43.003Z,4.80
2023-02-09T18:51:10.249Z,4.70
2023-02-09T18:53:39.951Z,4.70
2023-02-09T18:56:07.283Z,4.70
2023-02-09T18:58:34.605Z,4.60
2023-02-09T19:01:01.615Z,4.50
2023-02-09T19:03:28.507Z,4.50
2023-02-09T19:05:57.922Z,4.40
2023-02-09T19:08:29.457Z,4.40
2023-02-09T19:10:57.028Z,4.40
2023-02-09T19:13:27.084Z,4.40
2023-02-09T19:15:53.985Z,4.30
2023-02-09T19:18:23.679Z,4.30
2023-02-09T19:20:50.837Z,4.20
2023-02-09T19:23:19.187Z,4.20
2023-02-09T19:25:46.482Z,4.10
2023-02-09T19:28:13.661Z,4.10
2023-02-09T19:30:41.565Z,4.00
2023-02-09T19:33:10.704Z,4.00
2023-02-09T19:35:37.694Z,3.90
2023-02-09T19:38:04.781Z,3.90
2023-02-09T19:40:36.758Z,3.90
2023-02-09T19:43:04.991Z,3.80
2023-02-09T19:45:36.339Z,3.80
2023-02-09T19:48:04.672Z,3.70
2023-02-09T19:50:31.689Z,3.70
2023-02-09T19:53:02.781Z,3.60
2023-02-09T19:55:29.705Z,3.60
2023-02-09T19:57:58.368Z,3.50
2023-02-09T20:00:25.378Z,3.40
2023-02-09T20:02:52.510Z,3.40
2023-02-09T20:05:22.386Z,3.40
2023-02-09T20:07:49.572Z,3.40
2023-02-09T20:10:17.126Z,3.40
2023-02-09T20:15:14.614Z,3.30
2023-02-09T20:17:41.952Z,3.30
2023-02-09T20:20:09.966Z,3.30
2023-02-09T20:22:36.764Z,3.30
2023-02-09T20:25:04.035Z,3.20
2023-02-09T20:27:31.163Z,3.20
2023-02-09T20:30:01.416Z,3.20
2023-02-09T20:32:29.932Z,3.20
2023-02-09T20:34:56.903Z,3.10
2023-02-09T20:37:23.830Z,3.10
2023-02-09T20:39:50.745Z,3.10
2023-02-09T20:42:36.867Z,3.10
2023-02-09T20:45:23.018Z,3.10
2023-02-09T20:47:51.994Z,3.10
2023-02-09T20:50:20.060Z,3.10
2023-02-09T20:52:47.100Z,3.00
2023-02-09T20:55:14.524Z,3.00
2023-02-09T20:57:41.526Z,2.90
2023-02-09T21:00:11.619Z,2.90
2023-02-09T21:02:39.170Z,2.90
2023-02-09T21:05:08.558Z,2.90
2023-02-09T21:07:35.521Z,2.90
2023-02-09T21:10:02.661Z,2.90
2023-02-09T21:12:29.587Z,2.90
2023-02-09T21:14:58.735Z,2.90
2023-02-09T21:17:25.768Z,2.90
2023-02-09T21:19:56.102Z,2.90
2023-02-09T21:22:24.400Z,2.80
2023-02-09T21:24:54.251Z,2.80
2023-02-09T21:27:26.557Z,2.80
2023-02-09T21:29:53.375Z,2.80
2023-02-09T21:32:20.737Z,2.80
2023-02-09T21:34:47.654Z,2.80
2023-02-09T21:37:14.721Z,2.80
2023-02-09T21:39:42.972Z,2.70
2023-02-09T21:42:28.774Z,2.70
2023-02-09T21:44:55.778Z,2.70
2023-02-09T21:47:25.714Z,2.70
2023-02-09T21:49:53.154Z,2.60
2023-02-09T21:52:20.121Z,2.60
2023-02-09T21:54:48.583Z,2.60
2023-02-09T21:57:15.855Z,2.50
2023-02-09T21:59:42.874Z,2.50
2023-02-09T22:02:15.107Z,2.40
2023-02-09T22:04:42.967Z,2.40
2023-02-09T22:07:20.295Z,2.40
2023-02-09T22:09:48.687Z,2.40
2023-02-09T22:12:16.206Z,2.30
2023-02-09T22:14:43.082Z,2.30
2023-02-09T22:17:10.233Z,2.30
2023-02-09T22:19:37.451Z,2.20
2023-02-09T22:22:04.918Z,2.20
2023-02-09T22:24:34.872Z,2.20
2023-02-09T22:27:04.154Z,2.10
2023-02-09T22:29:33.180Z,2.10
2023-02-09T22:32:00.442Z,2.10
2023-02-09T22:34:27.360Z,2.00
2023-02-09T22:36:54.792Z,2.00
2023-02-09T22:39:21.865Z,2.00
2023-02-09T22:41:51.488Z,1.90
2023-02-09T22:44:19.943Z,1.90
2023-02-09T22:46:46.810Z,1.90
2023-02-09T22:49:29.926Z,1.90
2023-02-09T22:51:56.814Z,1.90
2023-02-09T22:54:24.094Z,1.90
2023-02-09T22:56:51.114Z,1.80
2023-02-09T22:59:19.548Z,1.80
2023-02-09T23:01:47.306Z,1.80
2023-02-09T23:04:14.448Z,1.80
2023-02-09T23:06:41.435Z,1.80
2023-02-09T23:09:08.800Z,1.80
2023-02-09T23:11:36.290Z,1.70
2023-02-09T23:14:09.701Z,1.70
2023-02-09T23:16:40.766Z,1.70
2023-02-09T23:19:10.968Z,1.60
2023-02-09T23:21:39.663Z,1.60
2023-02-09T23:24:07.209Z,1.50
2023-02-09T23:26:34.995Z,1.50
2023-02-09T23:29:05.760Z,1.50
2023-02-09T23:31:33.591Z,1.40
2023-02-09T23:34:04.951Z,1.40
2023-02-09T23:36:38.304Z,1.40
2023-02-09T23:39:06.303Z,1.40
2023-02-09T23:41:34.221Z,1.40
2023-02-09T23:44:01.900Z,1.40
2023-02-09T23:46:29.669Z,1.50
2023-02-09T23:48:57.660Z,1.40
2023-02-09T23:51:28.621Z,1.50
2023-02-09T23:53:57.834Z,1.50
2023-02-09T23:56:25.827Z,1.50
2023-02-09T23:58:53.743Z,1.50
